createdAt,value
2023-05-05T00:00:37.746Z,8.68
2023-05-05T00:10:39.683Z,10.13
2023-05-05T00:20:43.154Z,2.95
2023-05-05T00:30:45.463Z,5.22
2023-05-05T00:40:48.872Z,5.93
2023-05-05T00:50:50.886Z,5.10
2023-05-05T01:00:54.254Z,9.63
2023-05-05T01:11:02.909Z,10.38
2023-05-05T01:21:13.376Z,8.68
2023-05-05T01:31:26.805Z,7.55
2023-05-05T01:41:37.915Z,7.47
2023-05-05T01:51:41.399Z,12.65
2023-05-05T02:01:47.243Z,8.07
2023-05-05T02:11:49.969Z,6.85
2023-05-05T02:21:53.462Z,6.07
2023-05-05T02:32:01.488Z,6.90
2023-05-05T02:42:05.799Z,9.07
2023-05-05T02:52:07.749Z,14.25
2023-05-05T03:02:18.105Z,9.35
2023-05-05T03:12:27.144Z,15.32
2023-05-05T03:22:30.501Z,21.05
2023-05-05T03:32:32.515Z,12.52
2023-05-05T03:42:35.846Z,15.52
2023-05-05T03:52:37.758Z,21.85
2023-05-05T04:02:41.234Z,22.63
2023-05-05T04:12:43.295Z,15.30
2023-05-05T04:22:46.633Z,18.65
2023-05-05T04:32:48.661Z,20.67
2023-05-05T04:42:51.992Z,16.48
2023-05-05T04:52:53.904Z,16.15
2023-05-05T05:02:57.298Z,20.67
2023-05-05T05:13:02.409Z,11.13
2023-05-05T05:23:05.781Z,21.23
2023-05-05T05:33:07.862Z,11.90
2023-05-05T05:43:11.287Z,12.65
2023-05-05T05:53:13.190Z,17.00
2023-05-05T06:03:16.748Z,12.10
2023-05-05T06:13:18.784Z,14.27
2023-05-05T06:23:22.137Z,14.55
2023-05-05T06:33:24.057Z,11.95
2023-05-05T06:43:28.779Z,16.05
2023-05-05T06:53:32.887Z,10.73
2023-05-05T07:03:36.203Z,10.57
2023-05-05T07:13:38.233Z,19.48
2023-05-05T07:23:41.531Z,12.15
2023-05-05T07:33:43.424Z,9.23
2023-05-05T07:43:46.707Z,7.45
2023-05-05T07:53:48.821Z,15.40
2023-05-05T08:03:52.233Z,13.50
2023-05-05T08:13:54.216Z,13.88
2023-05-05T08:23:57.771Z,10.02
2023-05-05T08:33:59.727Z,10.07
2023-05-05T08:44:03.163Z,9.50
2023-05-05T08:54:09.980Z,7.72
2023-05-05T09:04:13.423Z,6.45
2023-05-05T09:14:15.402Z,12.23
2023-05-05T09:24:18.759Z,8.82
2023-05-05T09:34:20.841Z,7.07
2023-05-05T09:44:35.706Z,5.22
2023-05-05T09:54:37.694Z,6.43
2023-05-05T10:04:41.010Z,9.43
2023-05-05T10:14:43.921Z,5.45
2023-05-05T10:24:52.887Z,6.28
2023-05-05T10:34:59.828Z,12.40
2023-05-05T10:45:03.350Z,5.33
2023-05-05T10:55:13.695Z,11.35
2023-05-05T11:05:17.448Z,8.13
2023-05-05T11:15:35.026Z,7.72
2023-05-05T11:25:50.384Z,7.33
2023-05-05T11:35:54.758Z,4.55
2023-05-05T11:46:11.418Z,4.97
2023-05-05T11:56:14.652Z,8.60
2023-05-05T12:06:18.832Z,2.90
2023-05-05T12:16:20.943Z,4.88
2023-05-05T12:26:29.291Z,7.82
2023-05-05T12:46:46.340Z,9.07
2023-05-05T12:56:48.445Z,7.05
2023-05-05T13:07:09.898Z,8.52
2023-05-05T13:17:12.081Z,5.40
2023-05-05T13:27:15.407Z,9.40
2023-05-05T13:37:17.344Z,12.80
2023-05-05T13:47:20.678Z,8.32
2023-05-05T13:57:22.622Z,7.28
2023-05-05T14:07:25.898Z,5.72
2023-05-05T14:17:27.851Z,8.05
2023-05-05T14:27:31.155Z,8.07
2023-05-05T14:37:33.186Z,8.77
2023-05-05T14:47:36.651Z,11.43
2023-05-05T14:57:59.595Z,10.75
2023-05-05T15:08:02.963Z,9.85
2023-05-05T15:18:05.421Z,9.18
2023-05-05T15:28:08.814Z,6.80
2023-05-05T15:38:10.846Z,6.85
2023-05-05T15:48:15.302Z,9.02
2023-05-05T15:58:17.311Z,8.38
2023-05-05T16:08:20.644Z,9.45
2023-05-05T16:18:22.609Z,8.27
2023-05-05T16:28:25.962Z,10.32
2023-05-05T16:38:27.896Z,8.38
2023-05-05T16:48:31.299Z,8.90
2023-05-05T16:58:33.294Z,16.42
2023-05-05T17:08:36.607Z,11.45
2023-05-05T17:18:38.586Z,13.23
2023-05-05T17:28:41.871Z,15.38
2023-05-05T17:38:43.854Z,9.88
2023-05-05T17:48:47.843Z,16.83
2023-05-05T17:58:50.032Z,16.20
2023-05-05T18:08:53.416Z,13.27
2023-05-05T18:18:55.398Z,20.00
2023-05-05T18:28:58.747Z,19.83
2023-05-05T18:39:00.695Z,21.75
2023-05-05T18:49:04.210Z,10.77
2023-05-05T18:59:06.143Z,11.60
2023-05-05T19:09:09.446Z,16.50
2023-05-05T19:19:11.447Z,12.73
2023-05-05T19:29:14.764Z,20.70
2023-05-05T19:39:16.672Z,13.00
2023-05-05T19:49:33.056Z,19.40
2023-05-05T19:59:35.003Z,16.02
2023-05-05T20:09:38.405Z,14.02
2023-05-05T20:19:40.352Z,16.38
2023-05-05T20:29:43.727Z,10.68
2023-05-05T20:39:45.681Z,21.63
2023-05-05T20:49:49.042Z,17.65
2023-05-05T20:59:50.945Z,12.20
2023-05-05T21:09:54.235Z,18.98
2023-05-05T21:19:56.256Z,30.60
2023-05-05T21:29:59.753Z,17.60
2023-05-05T21:40:01.688Z,17.95
2023-05-05T22:01:16.980Z,17.50
2023-05-05T22:11:19.476Z,19.75
2023-05-05T22:21:22.746Z,16.70
2023-05-05T22:31:24.867Z,17.10
2023-05-05T22:41:28.223Z,17.95
2023-05-05T22:51:30.110Z,28.48
2023-05-05T23:01:34.163Z,15.40
2023-05-05T23:11:36.390Z,13.15
2023-05-05T23:21:52.006Z,17.77
2023-05-05T23:31:55.140Z,18.08
2023-05-05T23:41:58.435Z,16.48
2023-05-05T23:52:00.365Z,14.27
